Time;durP1;ratioP1;P1;durP2;ratioP2;P2;SDS_P1;SDS_P2;PMS_P1;PMS_P2;Temp;Humidity;BMP_temperature;BMP_pressure;BME280_temperature;BME280_humidity;BME280_pressure;Samples;Min_cycle;Max_cycle;Signal;HPM_P1;HPM_P2
2022/01/13 00:03:42;;;;;;;22.77;14.30;;;;;;;0.22;65.91;99792.97;12759229;23;20017;-77
2022/01/13 00:09:04;;;;;;;27.65;13.98;;;;;;;0.20;66.54;99798.94;12758539;23;20067;-77
2022/01/13 00:14:56;;;;;;;23.83;13.90;;;;;;;0.19;65.94;99800.16;12759245;23;20021;-76
2022/01/13 00:25:59;;;;;;;21.92;12.23;;;;;;;0.14;66.27;99789.84;12762188;23;20024;-77
2022/01/13 00:31:25;;;;;;;22.60;12.52;;;;;;;0.09;66.15;99785.00;12758852;23;20017;-76
2022/01/13 00:36:46;;;;;;;23.60;14.02;;;;;;;0.03;66.52;99786.91;12760566;23;20013;-76
2022/01/13 00:42:08;;;;;;;22.50;13.13;;;;;;;0.03;66.75;99794.38;12737132;23;20432;-77
2022/01/13 00:47:30;;;;;;;23.63;14.25;;;;;;;-0.05;67.23;99794.00;12754776;23;20017;-77
2022/01/13 00:52:51;;;;;;;20.60;12.75;;;;;;;-0.07;67.18;99790.97;12753553;23;20070;-77
2022/01/13 00:58:11;;;;;;;20.55;12.02;;;;;;;-0.06;66.80;99789.75;12753987;23;20024;-77
2022/01/13 01:03:33;;;;;;;26.77;13.32;;;;;;;-0.11;66.52;99784.91;12755083;23;20088;-77
2022/01/13 01:08:54;;;;;;;21.33;12.55;;;;;;;-0.12;66.54;99788.88;12735720;23;20024;-77
2022/01/13 01:14:17;;;;;;;22.17;13.48;;;;;;;-0.18;67.41;99790.78;12736361;23;20021;-77
2022/01/13 01:19:40;;;;;;;20.38;12.40;;;;;;;-0.20;67.58;99793.97;12757380;23;20027;-76
2022/01/13 01:25:38;;;;;;;23.65;13.60;;;;;;;-0.22;67.64;99810.16;12755641;23;20372;-77
2022/01/13 01:30:45;;;;;;;21.23;13.15;;;;;;;-0.26;67.32;99817.84;12779766;23;20454;-76
2022/01/13 01:36:11;;;;;;;22.15;13.60;;;;;;;-0.32;67.53;99798.50;12735825;23;20016;-76
2022/01/13 01:41:35;;;;;;;21.95;13.57;;;;;;;-0.38;67.18;99811.38;12739035;23;20070;-77
2022/01/13 01:46:58;;;;;;;23.35;14.13;;;;;;;-0.42;67.75;99796.31;12737249;23;20027;-77
2022/01/13 01:52:19;;;;;;;22.65;14.20;;;;;;;-0.42;67.98;99777.88;12737248;23;20017;-76
2022/01/13 01:57:40;;;;;;;25.30;14.10;;;;;;;-0.44;68.10;99780.34;12738063;23;20470;-76
2022/01/13 02:03:01;;;;;;;21.70;13.45;;;;;;;-0.40;67.79;99797.34;12740894;23;20395;-76
2022/01/13 02:08:22;;;;;;;18.75;12.30;;;;;;;-0.42;68.55;99790.84;12740944;23;20024;-76
2022/01/13 02:13:49;;;;;;;24.90;13.05;;;;;;;-0.44;68.50;99774.84;12695545;23;20017;-76
2022/01/13 02:19:10;;;;;;;21.10;13.18;;;;;;;-0.42;68.26;99780.59;12762498;23;20017;-76
2022/01/13 02:24:31;;;;;;;22.23;13.45;;;;;;;-0.38;68.42;99781.19;12781727;23;20016;-76
2022/01/13 02:29:52;;;;;;;22.83;14.27;;;;;;;-0.34;68.46;99770.03;12781265;23;20020;-76
2022/01/13 02:35:13;;;;;;;19.33;13.13;;;;;;;-0.40;68.09;99780.88;12740640;23;20017;-76
2022/01/13 02:40:34;;;;;;;24.27;14.13;;;;;;;-0.39;68.58;99776.91;12728838;23;20059;-76
2022/01/13 02:46:18;;;;;;;20.50;12.90;;;;;;;-0.40;68.90;99742.47;12780197;23;20341;-77
2022/01/13 02:51:36;;;;;;;22.13;13.70;;;;;;;-0.43;68.81;99729.72;12747807;23;20024;-76
2022/01/13 02:56:57;;;;;;;20.95;12.98;;;;;;;-0.44;68.95;99721.94;12739243;23;20459;-76
2022/01/13 03:02:18;;;;;;;19.73;12.15;;;;;;;-0.42;68.81;99724.97;12759965;23;20444;-76
2022/01/13 03:07:39;;;;;;;17.83;12.18;;;;;;;-0.44;68.84;99719.97;12715277;23;20100;-76
2022/01/13 03:13:01;;;;;;;20.60;12.85;;;;;;;-0.41;69.13;99716.25;12740219;23;20440;-77
2022/01/13 03:18:22;;;;;;;18.55;11.05;;;;;;;-0.42;69.07;99712.00;12735599;23;20079;-76
2022/01/13 03:23:43;;;;;;;19.70;12.38;;;;;;;-0.45;69.32;99717.69;12694888;23;20071;-76
2022/01/13 03:29:15;;;;;;;19.05;11.27;;;;;;;-0.44;69.31;99741.16;12719328;23;20368;-76
2022/01/13 03:34:36;;;;;;;17.45;11.02;;;;;;;-0.41;69.59;99748.44;12743774;23;20506;-76
2022/01/13 03:39:58;;;;;;;20.08;11.48;;;;;;;-0.43;69.20;99754.41;12750491;23;20372;-76
2022/01/13 03:45:22;;;;;;;18.08;11.35;;;;;;;-0.43;69.74;99751.66;12739562;23;20024;-76
2022/01/13 03:50:45;;;;;;;18.25;10.95;;;;;;;-0.47;69.28;99748.34;12740727;23;20024;-77
2022/01/13 03:56:36;;;;;;;19.35;11.98;;;;;;;-0.48;69.66;99749.59;12759788;23;20017;-76
2022/01/13 04:02:04;;;;;;;17.63;10.55;;;;;;;-0.52;69.96;99748.25;12799703;23;20013;-76
2022/01/13 04:07:25;;;;;;;15.98;10.32;;;;;;;-0.51;70.32;99747.00;12740870;23;20101;-76
2022/01/13 04:12:48;;;;;;;16.27;10.43;;;;;;;-0.51;70.14;99764.22;12738681;23;20024;-76
2022/01/13 04:18:09;;;;;;;16.58;10.55;;;;;;;-0.44;70.21;99768.59;12759558;23;20079;-76
2022/01/13 04:23:30;;;;;;;16.15;9.90;;;;;;;-0.47;70.59;99762.06;12718032;23;20021;-77
2022/01/13 04:29:00;;;;;;;13.60;9.27;;;;;;;-0.36;70.56;99765.00;12778641;23;20092;-76
2022/01/13 04:34:21;;;;;;;14.32;9.35;;;;;;;-0.06;70.28;99776.00;12742077;23;20025;-76
2022/01/13 04:39:42;;;;;;;15.98;9.73;;;;;;;0.12;69.94;99775.81;12712787;23;20104;-76
2022/01/13 04:45:04;;;;;;;16.70;10.35;;;;;;;0.33;70.27;99762.91;12738113;23;20028;-76
2022/01/13 04:50:25;;;;;;;13.85;9.00;;;;;;;0.45;70.00;99758.34;12737248;23;20071;-77
2022/01/13 04:55:57;;;;;;;14.68;9.65;;;;;;;0.46;69.51;99759.84;12737157;23;20017;-77
2022/01/13 05:01:18;;;;;;;14.27;9.50;;;;;;;0.57;69.44;99757.25;12739533;23;20105;-77
2022/01/13 05:06:39;;;;;;;15.00;9.07;;;;;;;0.68;69.13;99748.44;12762165;23;20021;-76
2022/01/13 05:12:02;;;;;;;13.43;8.82;;;;;;;0.82;69.83;99731.13;12737463;23;20075;-77
2022/01/13 05:17:48;;;;;;;13.02;8.60;;;;;;;0.83;69.87;99733.38;12778428;23;20021;-76
2022/01/13 05:23:10;;;;;;;14.27;9.10;;;;;;;0.80;69.67;99734.34;12782936;23;20020;-76
2022/01/13 05:28:31;;;;;;;11.90;8.60;;;;;;;0.75;69.33;99729.53;12779160;23;20017;-76
2022/01/13 05:33:52;;;;;;;13.95;8.30;;;;;;;0.75;69.80;99731.50;12758210;23;20013;-77
2022/01/13 05:39:13;;;;;;;12.55;8.52;;;;;;;0.74;69.69;99735.50;12737381;23;20017;-76
2022/01/13 05:44:38;;;;;;;14.57;9.27;;;;;;;0.75;70.15;99729.53;12758499;23;20039;-76
2022/01/13 05:50:00;;;;;;;13.10;9.18;;;;;;;0.78;70.21;99730.56;12738465;23;20375;-78
2022/01/13 05:55:22;;;;;;;13.38;8.63;;;;;;;0.82;70.00;99736.63;12734794;23;20033;-77
2022/01/13 06:00:43;;;;;;;16.42;10.23;;;;;;;0.83;69.51;99736.13;12776114;23;20083;-77
2022/01/13 06:06:04;;;;;;;16.67;11.10;;;;;;;0.81;69.68;99730.34;12755105;23;20099;-77
2022/01/13 06:11:27;;;;;;;16.33;11.00;;;;;;;0.80;70.01;99733.59;12734497;23;20025;-77
2022/01/13 06:16:47;;;;;;;15.20;10.27;;;;;;;0.79;69.93;99741.09;12776450;23;20048;-78
2022/01/13 06:22:08;;;;;;;14.60;9.73;;;;;;;0.90;69.68;99725.97;12755014;23;20375;-78
2022/01/13 06:27:29;;;;;;;14.50;10.20;;;;;;;0.86;70.02;99739.91;12754491;23;20021;-77
2022/01/13 06:32:51;;;;;;;14.93;10.93;;;;;;;0.88;69.70;99742.19;12734445;23;20021;-77
2022/01/13 06:38:11;;;;;;;13.63;9.25;;;;;;;0.85;70.08;99733.66;12734148;23;20021;-78
2022/01/13 06:43:33;;;;;;;15.50;10.30;;;;;;;0.91;70.02;99730.22;12734108;23;20017;-77
2022/01/13 06:48:54;;;;;;;15.85;10.30;;;;;;;0.97;69.97;99742.81;12738169;23;20100;-77
2022/01/13 06:54:15;;;;;;;15.18;10.18;;;;;;;0.99;69.84;99751.34;12758232;23;20024;-77
2022/01/13 06:59:36;;;;;;;15.27;10.73;;;;;;;1.05;69.52;99752.16;12737566;23;20029;-78
2022/01/13 07:04:57;;;;;;;15.18;10.75;;;;;;;1.13;69.25;99763.50;12737692;23;20104;-77
2022/01/13 07:10:18;;;;;;;16.20;10.05;;;;;;;1.13;69.45;99749.75;12758001;23;20017;-77
2022/01/13 07:15:38;;;;;;;16.33;11.27;;;;;;;1.22;69.06;99757.84;12758167;23;20452;-77
2022/01/13 07:21:00;;;;;;;16.30;10.00;;;;;;;1.20;69.01;99754.09;12737243;23;20029;-77
2022/01/13 07:26:21;;;;;;;17.77;11.50;;;;;;;1.27;69.18;99759.94;12757485;23;20020;-78
2022/01/13 07:31:42;;;;;;;17.67;12.27;;;;;;;1.38;68.88;99765.56;12759394;23;20017;-77
2022/01/13 07:37:03;;;;;;;17.05;11.23;;;;;;;1.55;68.61;99765.00;12781274;23;20040;-77
2022/01/13 07:42:25;;;;;;;16.25;11.27;;;;;;;1.67;68.62;99758.34;12759762;23;20028;-77
2022/01/13 07:47:46;;;;;;;18.58;12.35;;;;;;;1.84;67.79;99758.50;12759458;23;20017;-77
2022/01/13 07:53:07;;;;;;;15.07;11.48;;;;;;;1.90;67.88;99765.56;12738505;23;20020;-76
2022/01/13 07:58:28;;;;;;;13.95;9.95;;;;;;;1.98;67.48;99765.88;12759701;23;20025;-77
2022/01/13 08:03:49;;;;;;;14.60;10.18;;;;;;;2.24;67.46;99771.38;12775172;23;20454;-77
2022/01/13 08:09:13;;;;;;;17.50;11.80;;;;;;;2.64;66.91;99770.41;12739990;23;20026;-77
2022/01/13 08:14:34;;;;;;;15.85;11.02;;;;;;;3.04;65.91;99763.09;12779134;23;20420;-77
2022/01/13 08:19:55;;;;;;;13.55;10.30;;;;;;;3.82;64.53;99773.63;12738186;23;20021;-77
2022/01/13 08:25:17;;;;;;;13.65;10.05;;;;;;;4.24;64.28;99786.47;12759558;23;20028;-77
2022/01/13 08:30:38;;;;;;;15.52;10.80;;;;;;;4.18;63.28;99794.78;12778880;23;20444;-75
2022/01/13 08:35:59;;;;;;;14.20;10.93;;;;;;;3.92;63.05;99799.75;12738188;23;20028;-77
2022/01/13 08:41:20;;;;;;;15.07;10.90;;;;;;;3.65;63.72;99799.19;12744032;23;20025;-76
2022/01/13 08:46:40;;;;;;;14.98;10.82;;;;;;;3.64;63.16;99792.16;12758001;23;20013;-77
2022/01/13 08:52:02;;;;;;;16.90;11.68;;;;;;;3.57;63.61;99786.34;12779679;23;20071;-80
2022/01/13 08:57:23;;;;;;;14.90;11.15;;;;;;;3.41;63.81;99782.31;12779489;23;20325;-77
2022/01/13 09:02:45;;;;;;;17.92;11.57;;;;;;;3.47;63.35;99780.31;12757846;23;20016;-78
2022/01/13 09:08:06;;;;;;;16.38;10.95;;;;;;;4.20;63.17;99781.19;12758052;23;20087;-77
2022/01/13 09:13:29;;;;;;;15.52;11.57;;;;;;;4.75;61.11;99773.38;12778593;23;20017;-77
2022/01/13 09:24:18;;;;;;;17.90;13.27;;;;;;;5.81;59.53;99747.22;12778809;23;20013;-75
2022/01/13 09:29:41;;;;;;;16.63;12.13;;;;;;;5.98;58.52;99751.41;12759270;23;20069;-74
2022/01/13 09:35:08;;;;;;;16.45;12.43;;;;;;;5.80;58.35;99743.69;12758410;23;20487;-76
2022/01/13 09:40:29;;;;;;;15.82;11.52;;;;;;;5.71;57.60;99749.56;12747272;23;20013;-76
2022/01/13 09:45:50;;;;;;;17.75;11.27;;;;;;;5.65;57.80;99757.13;12756679;23;20075;-74
2022/01/13 09:51:11;;;;;;;15.65;12.55;;;;;;;5.30;57.62;99755.78;12776999;23;20440;-74
2022/01/13 09:56:33;;;;;;;16.88;11.52;;;;;;;5.13;57.98;99763.44;12757794;23;20104;-73
2022/01/13 10:01:54;;;;;;;16.60;12.45;;;;;;;4.93;57.27;99761.00;12758003;23;20025;-74
2022/01/13 10:07:36;;;;;;;17.00;11.63;;;;;;;4.77;57.78;99738.38;12759571;23;20023;-73
2022/01/13 10:13:23;;;;;;;16.13;11.75;;;;;;;4.54;57.83;99753.53;12749992;23;20384;-74
2022/01/13 10:18:45;;;;;;;15.95;11.32;;;;;;;4.32;58.94;99755.03;12742015;23;20332;-73
2022/01/13 10:24:11;;;;;;;16.48;11.40;;;;;;;4.08;58.46;99746.53;12723428;23;20478;-74
2022/01/13 10:29:50;;;;;;;17.35;11.25;;;;;;;4.17;58.71;99757.34;12740733;23;20017;-73
2022/01/13 10:35:17;;;;;;;15.75;10.88;;;;;;;4.31;58.94;99734.19;12761433;23;20072;-74
2022/01/13 10:40:41;;;;;;;15.05;10.55;;;;;;;4.61;59.09;99697.69;12741400;23;20017;-71
2022/01/13 10:46:02;;;;;;;16.27;10.55;;;;;;;6.19;58.57;99681.66;12802090;23;20023;-72
2022/01/13 10:51:25;;;;;;;15.93;11.63;;;;;;;7.77;53.62;99689.56;12780589;23;20020;-75
2022/01/13 10:56:46;;;;;;;15.57;11.43;;;;;;;8.58;52.58;99695.50;12781530;23;20375;-74
2022/01/13 11:02:10;;;;;;;15.27;10.98;;;;;;;8.86;52.19;99686.63;12760347;23;20498;-77
2022/01/13 11:07:32;;;;;;;14.23;9.85;;;;;;;8.39;51.58;99684.47;12762207;23;20051;-76
2022/01/13 11:12:58;;;;;;;12.73;9.32;;;;;;;7.99;52.25;99697.53;12780844;23;20053;-76
2022/01/13 11:18:22;;;;;;;12.95;10.30;;;;;;;7.40;52.07;99696.66;12781446;23;20245;-78
2022/01/13 11:23:50;;;;;;;12.55;9.48;;;;;;;7.08;52.65;99693.81;12779279;23;20012;-76
2022/01/13 11:29:11;;;;;;;12.60;9.90;;;;;;;6.81;53.47;99670.66;12778394;23;20017;-76
2022/01/13 11:34:33;;;;;;;13.23;10.20;;;;;;;6.93;53.89;99672.00;12759661;23;20048;-77
2022/01/13 11:39:55;;;;;;;13.52;9.18;;;;;;;7.03;53.46;99684.25;12792261;23;20017;-77
2022/01/13 11:45:18;;;;;;;12.57;9.30;;;;;;;6.91;53.27;99688.44;12780155;23;20088;-79
2022/01/13 11:50:45;;;;;;;14.48;9.30;;;;;;;6.94;53.52;99661.66;12771094;23;20045;-80
2022/01/13 11:56:07;;;;;;;13.27;9.50;;;;;;;6.85;53.25;99657.22;12758842;23;20020;-79
2022/01/13 12:01:38;;;;;;;15.32;10.10;;;;;;;6.93;53.51;99647.03;12765957;23;20463;-79
2022/01/13 12:07:00;;;;;;;11.60;8.63;;;;;;;7.10;52.74;99628.13;12764688;23;20079;-81
2022/01/13 12:12:29;;;;;;;12.68;8.98;;;;;;;7.42;52.69;99627.41;12802770;23;20017;-80
2022/01/13 12:18:04;;;;;;;11.57;9.00;;;;;;;7.64;52.17;99637.44;12744260;23;20021;-75
2022/01/13 12:23:45;;;;;;;12.63;8.87;;;;;;;7.45;51.87;99634.72;12777554;23;20437;-76
2022/01/13 12:29:13;;;;;;;13.38;9.38;;;;;;;7.24;52.02;99619.84;12756358;23;20013;-76
2022/01/13 12:34:35;;;;;;;10.88;8.70;;;;;;;6.90;52.88;99634.22;12797850;23;20433;-73
2022/01/13 12:40:25;;;;;;;12.80;9.40;;;;;;;6.73;53.33;99617.00;12775808;23;20013;-73
2022/01/13 12:45:46;;;;;;;12.50;9.40;;;;;;;6.56;53.54;99619.97;12549322;23;20030;-76
2022/01/13 12:51:07;;;;;;;13.30;10.40;;;;;;;6.48;54.03;99624.63;12530374;23;20517;-76
2022/01/13 12:56:31;;;;;;;11.95;9.10;;;;;;;6.34;54.12;99621.00;12530179;23;20034;-75
2022/01/13 13:01:52;;;;;;;13.83;10.10;;;;;;;6.10;54.64;99630.06;12534619;23;20026;-81
2022/01/13 13:07:13;;;;;;;13.13;8.75;;;;;;;6.05;55.34;99627.34;12570155;23;20013;-82
2022/01/13 13:12:36;;;;;;;12.80;9.77;;;;;;;5.86;55.56;99622.44;12805262;22;20016;-84
2022/01/13 13:17:58;;;;;;;14.35;10.15;;;;;;;5.72;56.17;99618.03;12917830;23;20004;-81
2022/01/13 13:23:27;;;;;;;12.45;9.52;;;;;;;5.76;56.27;99618.50;12909206;23;20012;-80
2022/01/13 13:28:51;;;;;;;11.85;9.23;;;;;;;5.75;56.23;99617.00;12928406;22;20071;-83
2022/01/13 13:34:14;;;;;;;13.05;9.23;;;;;;;5.65;56.95;99597.19;12936435;22;20004;-80
2022/01/13 13:39:35;;;;;;;13.02;9.18;;;;;;;5.63;56.65;99599.72;12798917;23;20448;-82
2022/01/13 13:44:56;;;;;;;13.73;9.38;;;;;;;5.47;57.17;99595.81;12765752;23;20070;-78
2022/01/13 13:50:17;;;;;;;12.63;9.18;;;;;;;5.36;57.43;99593.13;12777121;23;20021;-78
2022/01/13 13:55:39;;;;;;;12.20;9.20;;;;;;;5.23;57.77;99579.16;12796385;23;20024;-83
2022/01/13 14:01:01;;;;;;;11.70;8.90;;;;;;;5.17;58.74;99573.63;12806141;23;20011;-84
2022/01/13 14:06:42;;;;;;;11.90;8.48;;;;;;;5.12;58.72;99573.69;12810141;23;20012;-77
2022/01/13 14:12:03;;;;;;;12.90;8.18;;;;;;;5.06;59.01;99575.72;12824090;23;20027;-77
2022/01/13 14:17:34;;;;;;;11.57;8.63;;;;;;;4.97;59.06;99562.19;12822576;23;20062;-77
2022/01/13 14:23:03;;;;;;;11.77;8.32;;;;;;;4.85;59.13;99573.34;12844804;23;20332;-79
2022/01/13 14:28:28;;;;;;;13.40;9.70;;;;;;;4.66;59.84;99572.44;12822385;23;20019;-79
2022/01/13 14:33:50;;;;;;;12.88;9.70;;;;;;;4.53;60.09;99566.69;12824979;23;20017;-79
2022/01/13 14:39:11;;;;;;;11.50;8.88;;;;;;;4.40;60.77;99561.00;12823319;23;20017;-78
2022/01/13 14:44:33;;;;;;;13.23;9.82;;;;;;;4.30;60.74;99566.81;12794401;23;20104;-81
2022/01/13 14:49:54;;;;;;;14.95;10.75;;;;;;;4.18;61.35;99567.34;12827571;23;20024;-80
2022/01/13 14:55:16;;;;;;;13.40;10.00;;;;;;;4.01;62.11;99559.09;12899948;23;20001;-81
2022/01/13 15:00:38;;;;;;;15.70;10.50;;;;;;;3.83;62.11;99549.34;12838536;23;20024;-83
2022/01/13 15:06:00;;;;;;;16.08;10.60;;;;;;;3.70;62.04;99562.94;12620555;23;20022;-77
2022/01/13 15:11:21;;;;;;;14.02;10.65;;;;;;;3.55;62.42;99551.38;12579328;23;20053;-77
2022/01/13 15:16:42;;;;;;;15.15;10.32;;;;;;;3.36;63.66;99546.38;12598207;23;20018;-77
2022/01/13 15:22:04;;;;;;;17.63;11.27;;;;;;;3.27;63.94;99537.59;12577616;23;20022;-78
2022/01/13 15:27:26;;;;;;;16.95;10.88;;;;;;;3.19;64.68;99531.09;12567708;23;20073;-78
2022/01/13 15:32:47;;;;;;;15.68;10.80;;;;;;;3.08;64.37;99527.06;12538170;23;20025;-77
2022/01/13 15:38:09;;;;;;;15.75;11.45;;;;;;;2.99;65.71;99543.88;12558508;23;20029;-77
2022/01/13 15:43:30;;;;;;;15.57;11.27;;;;;;;2.95;65.27;99535.06;12558407;23;20338;-78
2022/01/13 15:48:51;;;;;;;15.52;11.15;;;;;;;2.91;65.95;99534.56;12557827;23;20099;-78
2022/01/13 15:54:12;;;;;;;17.33;11.65;;;;;;;2.89;66.17;99542.56;12556923;23;20033;-77
2022/01/13 15:59:33;;;;;;;15.93;11.00;;;;;;;2.84;66.03;99524.78;12558117;23;20462;-75
2022/01/13 16:04:54;;;;;;;15.88;9.95;;;;;;;2.81;66.64;99531.31;12556516;23;20019;-75
2022/01/13 16:10:15;;;;;;;16.10;10.75;;;;;;;2.80;67.16;99529.03;12576999;23;20025;-75
2022/01/13 16:15:37;;;;;;;17.08;11.20;;;;;;;2.79;67.18;99533.03;12596439;23;20333;-78
2022/01/13 16:20:59;;;;;;;15.75;10.95;;;;;;;2.76;67.24;99534.03;12577133;23;20334;-77
2022/01/13 16:26:20;;;;;;;17.33;11.13;;;;;;;2.67;67.54;99514.97;12584803;23;20014;-75
2022/01/13 16:31:41;;;;;;;18.08;11.60;;;;;;;2.66;68.28;99530.00;12576933;23;20022;-75
2022/01/13 16:37:05;;;;;;;16.38;11.25;;;;;;;2.62;67.88;99519.22;12567857;23;20030;-75
2022/01/13 16:42:26;;;;;;;17.33;11.07;;;;;;;2.58;68.66;99536.00;12546547;23;20069;-75
2022/01/13 16:47:48;;;;;;;16.70;10.55;;;;;;;2.57;68.22;99520.72;12556645;23;20023;-78
2022/01/13 16:53:09;;;;;;;15.77;10.15;;;;;;;2.53;68.96;99506.44;12575642;23;20022;-74
2022/01/13 16:58:31;;;;;;;15.73;10.57;;;;;;;2.52;69.25;99521.47;12576401;23;20030;-75
2022/01/13 17:03:54;;;;;;;19.48;11.35;;;;;;;2.52;69.63;99521.47;12561482;23;20521;-75
2022/01/13 17:09:15;;;;;;;15.32;10.93;;;;;;;2.48;69.48;99525.69;12576011;23;20019;-74
2022/01/13 17:14:37;;;;;;;16.52;11.73;;;;;;;2.43;69.92;99516.16;12556190;23;20022;-75
2022/01/13 17:20:04;;;;;;;17.20;11.32;;;;;;;2.45;70.08;99510.16;12596104;23;20041;-74
2022/01/13 17:25:27;;;;;;;14.50;10.57;;;;;;;2.47;70.13;99516.69;12575437;23;20338;-75
2022/01/13 17:30:47;;;;;;;17.67;11.18;;;;;;;2.46;70.38;99515.16;12575658;23;20027;-74
2022/01/13 17:36:08;;;;;;;17.38;11.40;;;;;;;2.44;70.44;99523.19;12575933;23;20025;-74
2022/01/13 17:41:30;;;;;;;14.55;10.75;;;;;;;2.40;70.76;99521.91;12546712;23;20029;-75
2022/01/13 17:46:51;;;;;;;15.32;11.25;;;;;;;2.41;70.77;99521.41;12595837;23;20018;-77
2022/01/13 17:52:14;;;;;;;14.82;10.15;;;;;;;2.38;70.59;99518.91;12600532;23;20389;-76
2022/01/13 17:57:35;;;;;;;15.85;11.23;;;;;;;2.36;71.18;99513.88;12585072;23;20019;-76
2022/01/13 18:02:56;;;;;;;20.17;13.63;;;;;;;2.32;71.24;99518.91;12555466;23;20022;-76
2022/01/13 18:08:20;;;;;;;18.15;12.25;;;;;;;2.26;71.95;99513.34;12576171;23;20024;-76
2022/01/13 18:13:43;;;;;;;15.60;11.98;;;;;;;2.25;71.40;99514.59;12595855;23;20019;-74
2022/01/13 18:19:04;;;;;;;14.75;10.80;;;;;;;2.25;71.12;99513.84;12574919;23;20030;-75
2022/01/13 18:24:26;;;;;;;13.80;9.88;;;;;;;2.23;71.63;99503.34;12575782;23;20022;-76
2022/01/13 18:29:47;;;;;;;13.50;10.77;;;;;;;2.22;71.88;99501.81;12575468;23;20019;-76
2022/01/13 18:35:11;;;;;;;16.25;10.95;;;;;;;2.17;71.84;99499.03;12575635;23;20019;-77
2022/01/13 18:40:32;;;;;;;14.98;10.98;;;;;;;2.17;71.90;99501.78;12595986;23;20013;-82
2022/01/13 18:46:01;;;;;;;17.13;11.57;;;;;;;2.16;71.77;99495.53;12632878;23;20045;-83
2022/01/13 18:51:24;;;;;;;15.65;10.98;;;;;;;2.11;72.09;99482.47;12604752;23;20030;-84
2022/01/13 18:56:45;;;;;;;16.08;11.00;;;;;;;2.10;72.18;99488.50;12634523;23;20002;-84
2022/01/13 19:02:06;;;;;;;15.05;10.68;;;;;;;2.09;72.31;99492.50;12627906;23;20030;-84
2022/01/13 19:07:27;;;;;;;15.38;11.55;;;;;;;2.00;71.80;99488.69;12692805;23;20045;-78
2022/01/13 19:12:49;;;;;;;17.48;11.55;;;;;;;1.99;72.70;99497.47;12710048;23;20022;-76
2022/01/13 19:18:17;;;;;;;15.65;10.85;;;;;;;1.97;72.53;99475.94;12699917;23;20441;-77
2022/01/13 19:23:38;;;;;;;17.48;11.25;;;;;;;1.93;72.60;99483.69;12699362;23;20028;-77
2022/01/13 19:28:59;;;;;;;14.45;10.77;;;;;;;1.99;72.41;99487.19;12679091;23;20073;-77
2022/01/13 19:34:20;;;;;;;13.95;10.05;;;;;;;1.96;72.72;99488.19;12698820;23;20018;-75
2022/01/13 19:39:41;;;;;;;15.00;10.70;;;;;;;1.96;72.45;99468.16;12698788;23;20021;-77
2022/01/13 19:45:07;;;;;;;15.68;10.38;;;;;;;1.91;72.34;99466.88;12678289;23;20048;-77
2022/01/13 19:50:28;;;;;;;17.80;11.23;;;;;;;1.93;72.51;99467.16;12658364;23;20453;-77
2022/01/13 19:55:50;;;;;;;15.70;10.55;;;;;;;1.94;72.37;99467.91;12697908;23;20452;-76
2022/01/13 20:01:11;;;;;;;15.82;10.52;;;;;;;1.91;72.38;99469.63;12698431;23;20029;-77
2022/01/13 20:06:32;;;;;;;14.98;10.30;;;;;;;1.88;72.87;99459.59;12643413;23;20024;-77
2022/01/13 20:11:55;;;;;;;15.95;10.23;;;;;;;1.86;72.73;99459.34;12637626;23;20076;-77
2022/01/13 20:17:16;;;;;;;16.20;10.38;;;;;;;1.87;72.81;99474.63;12637712;23;20017;-77
2022/01/13 20:22:38;;;;;;;15.02;9.82;;;;;;;1.89;72.36;99472.13;12617113;23;20109;-77
2022/01/13 20:27:58;;;;;;;16.77;10.85;;;;;;;1.87;72.66;99471.13;12617401;23;20053;-77
2022/01/13 20:33:19;;;;;;;17.00;11.13;;;;;;;1.85;72.59;99471.63;12657452;23;20328;-77
2022/01/13 20:38:40;;;;;;;16.65;10.82;;;;;;;1.83;72.58;99468.59;12676521;23;20068;-77
2022/01/13 20:44:01;;;;;;;17.30;11.32;;;;;;;1.80;72.72;99458.56;12636317;23;20048;-76
2022/01/13 20:49:22;;;;;;;17.50;11.35;;;;;;;1.77;72.62;99451.31;12677224;23;20025;-77
2022/01/13 20:54:49;;;;;;;18.02;11.20;;;;;;;1.76;72.71;99449.81;12618505;23;20446;-76
2022/01/13 21:00:11;;;;;;;17.65;11.40;;;;;;;1.76;72.74;99444.28;12636689;23;20145;-76
2022/01/13 21:05:32;;;;;;;16.00;10.73;;;;;;;1.72;73.17;99436.25;12636005;23;20520;-75
2022/01/13 21:10:55;;;;;;;16.75;10.98;;;;;;;1.68;72.83;99429.47;12616256;23;20036;-77
2022/01/13 21:16:16;;;;;;;18.60;11.20;;;;;;;1.68;73.08;99426.72;12653991;23;20040;-78
2022/01/13 21:21:37;;;;;;;16.15;10.95;;;;;;;1.62;72.87;99423.94;12634661;23;20029;-77
2022/01/13 21:26:58;;;;;;;20.80;12.30;;;;;;;1.58;72.98;99420.69;12630469;23;20381;-78
2022/01/13 21:32:20;;;;;;;18.27;11.73;;;;;;;1.56;72.95;99406.66;12632930;23;20157;-77
2022/01/13 21:37:41;;;;;;;19.15;11.45;;;;;;;1.52;73.02;99397.88;12631095;23;20014;-78
2022/01/13 21:43:02;;;;;;;17.88;11.18;;;;;;;1.52;72.86;99394.38;12632345;23;20032;-78
2022/01/13 21:48:29;;;;;;;20.23;11.38;;;;;;;1.48;73.21;99396.63;12613914;23;20021;-77
2022/01/13 21:53:50;;;;;;;19.58;12.27;;;;;;;1.42;73.34;99391.81;12629978;23;20381;-78
2022/01/13 21:59:11;;;;;;;23.52;13.63;;;;;;;1.40;73.71;99386.06;12611284;23;20048;-78
2022/01/13 22:04:32;;;;;;;21.88;12.93;;;;;;;1.40;73.30;99388.06;12624632;23;20393;-78
2022/01/13 22:09:53;;;;;;;22.83;14.25;;;;;;;1.31;73.42;99386.25;12632088;23;20564;-78
2022/01/13 22:15:15;;;;;;;19.30;12.27;;;;;;;1.32;72.91;99385.00;12634952;23;20093;-78
2022/01/13 22:20:38;;;;;;;21.02;12.95;;;;;;;1.31;73.79;99378.00;12636367;23;20456;-78
2022/01/13 22:25:58;;;;;;;19.05;11.73;;;;;;;1.35;73.63;99367.53;12640733;23;20018;-77
2022/01/13 22:31:19;;;;;;;19.00;12.00;;;;;;;1.35;73.76;99367.53;12639524;23;20444;-77
2022/01/13 22:36:40;;;;;;;18.13;10.77;;;;;;;1.35;73.84;99364.78;12619479;23;20018;-77
2022/01/13 22:42:01;;;;;;;21.35;12.52;;;;;;;1.36;73.88;99349.03;12619533;23;20050;-77
2022/01/13 22:47:22;;;;;;;17.83;11.50;;;;;;;1.33;73.71;99350.75;12658929;23;20024;-78
2022/01/13 22:52:43;;;;;;;18.05;11.48;;;;;;;1.37;73.88;99345.78;12638965;23;20041;-77
2022/01/13 22:58:05;;;;;;;19.23;10.90;;;;;;;1.35;74.11;99331.78;12639225;23;20022;-77
2022/01/13 23:03:26;;;;;;;20.02;12.30;;;;;;;1.34;73.77;99346.75;12636910;23;20025;-77
2022/01/13 23:08:47;;;;;;;17.92;11.27;;;;;;;1.34;73.98;99321.22;12595064;23;20025;-77
2022/01/13 23:14:12;;;;;;;17.35;10.98;;;;;;;1.36;74.03;99324.28;12639275;23;20022;-77
2022/01/13 23:25:14;;;;;;;19.70;11.30;;;;;;;1.38;74.00;99330.78;12641743;23;20329;-77
2022/01/13 23:30:35;;;;;;;19.05;11.32;;;;;;;1.39;73.80;99331.53;12618687;23;20097;-77
2022/01/13 23:35:57;;;;;;;19.40;10.93;;;;;;;1.43;73.71;99321.03;12618415;23;20041;-77
2022/01/13 23:41:19;;;;;;;15.02;9.63;;;;;;;1.41;73.80;99307.00;12657665;23;20036;-77
2022/01/13 23:52:22;;;;;;;15.90;9.40;;;;;;;1.46;74.00;99302.78;12657793;23;20022;-77
2022/01/13 23:57:45;;;;;;;15.95;9.68;;;;;;;1.52;74.19;99289.78;12637280;23;20018;-77
